createdAt,value
2022-09-05T00:00:23.601Z,6.45
2022-09-05T00:02:56.310Z,6.60
2022-09-05T00:05:33.693Z,7.65
2022-09-05T00:08:14.632Z,6.07
2022-09-05T00:11:39.830Z,7.05
2022-09-05T00:14:07.682Z,5.13
2022-09-05T00:16:52.239Z,6.63
2022-09-05T00:24:22.790Z,6.40
2022-09-05T00:24:32.632Z,8.32
2022-09-05T00:26:13.309Z,4.75
2022-09-05T00:29:03.072Z,6.50
2022-09-05T00:31:53.910Z,5.45
2022-09-05T00:34:59.928Z,6.53
2022-09-05T00:37:34.120Z,4.95
2022-09-05T00:40:19.117Z,7.65
2022-09-05T00:42:53.235Z,4.35
2022-09-05T00:45:31.314Z,4.65
2022-09-05T00:48:07.755Z,4.50
2022-09-05T00:50:56.379Z,5.00
2022-09-05T00:53:29.992Z,4.05
2022-09-05T00:56:27.971Z,6.77
2022-09-05T00:59:35.172Z,4.20
2022-09-05T01:02:28.288Z,4.53
2022-09-05T01:05:06.480Z,5.05
2022-09-05T01:07:46.650Z,3.95
2022-09-05T01:10:38.849Z,3.80
2022-09-05T01:13:21.528Z,5.65
2022-09-05T01:16:00.213Z,5.07
2022-09-05T01:18:43.469Z,4.57
2022-09-05T01:21:35.367Z,4.40
2022-09-05T01:24:28.016Z,4.30
2022-09-05T01:28:25.244Z,4.65
2022-09-05T01:30:36.107Z,4.68
2022-09-05T01:33:19.841Z,4.43
2022-09-05T01:36:04.227Z,3.80
2022-09-05T01:38:36.935Z,4.43
2022-09-05T01:41:21.806Z,4.57
2022-09-05T01:44:07.195Z,4.72
2022-09-05T01:46:35.190Z,6.78
2022-09-05T01:49:14.040Z,4.18
2022-09-05T01:52:04.901Z,4.55
2022-09-05T01:54:47.556Z,4.65
2022-09-05T01:57:35.837Z,4.28
2022-09-05T02:00:12.609Z,4.03
2022-09-05T02:03:07.032Z,5.68
2022-09-05T02:05:51.860Z,6.23
2022-09-05T02:11:12.746Z,5.35
2022-09-05T02:13:46.126Z,4.32
2022-09-05T02:16:23.059Z,3.80
2022-09-05T02:19:29.416Z,4.72
2022-09-05T02:22:12.067Z,4.28
2022-09-05T02:24:45.627Z,5.18
2022-09-05T02:28:05.227Z,4.47
2022-09-05T02:30:24.597Z,6.47
2022-09-05T02:32:55.259Z,4.93
2022-09-05T02:35:40.542Z,4.70
2022-09-05T02:40:53.497Z,4.40
2022-09-05T02:45:10.682Z,4.32
2022-09-05T02:45:18.521Z,4.20
2022-09-05T02:47:16.387Z,4.07
2022-09-05T02:52:46.254Z,5.47
2022-09-05T02:57:34.569Z,4.15
2022-09-05T02:59:11.302Z,4.10
2022-09-05T03:01:52.484Z,4.78
2022-09-05T03:04:29.771Z,4.55
2022-09-05T03:07:14.639Z,3.92
2022-09-05T03:12:50.410Z,4.25
2022-09-05T03:15:38.323Z,3.90
2022-09-05T03:18:28.085Z,3.80
2022-09-05T03:21:29.930Z,5.03
2022-09-05T03:24:02.459Z,7.28
2022-09-05T03:26:38.110Z,7.43
2022-09-05T03:29:45.919Z,5.85
2022-09-05T03:32:33.777Z,3.95
2022-09-05T03:35:32.383Z,5.03
2022-09-05T03:38:20.619Z,3.60
2022-09-05T03:41:02.766Z,4.45
2022-09-05T03:44:06.819Z,4.35
2022-09-05T03:47:12.813Z,4.28
2022-09-05T03:54:51.144Z,5.85
2022-09-05T03:57:14.440Z,4.10
2022-09-05T03:57:14.577Z,5.03
2022-09-05T03:59:28.817Z,4.95
2022-09-05T04:04:54.896Z,5.68
2022-09-05T04:08:18.262Z,6.30
2022-09-05T04:08:34.021Z,4.47
2022-09-05T04:11:02.048Z,3.35
2022-09-05T04:13:51.414Z,4.38
2022-09-05T04:16:24.110Z,4.13
2022-09-05T04:18:56.521Z,7.07
2022-09-05T04:21:35.009Z,4.22
2022-09-05T04:24:39.564Z,4.38
2022-09-05T04:27:27.754Z,3.97
2022-09-05T04:29:58.530Z,8.10
2022-09-05T04:32:38.047Z,6.13
2022-09-05T04:35:19.878Z,4.53
2022-09-05T04:38:13.270Z,7.75
2022-09-05T04:40:48.734Z,5.95
2022-09-05T04:43:18.084Z,7.35
2022-09-05T04:46:15.717Z,6.40
2022-09-05T04:48:59.713Z,8.27
2022-09-05T04:52:00.875Z,5.60
2022-09-05T04:54:45.700Z,7.97
2022-09-05T04:57:27.911Z,6.40
2022-09-05T05:05:34.410Z,4.97
2022-09-05T05:06:09.585Z,7.32
2022-09-05T05:06:14.078Z,6.00
2022-09-05T05:08:42.728Z,5.63
2022-09-05T05:17:59.309Z,6.55
2022-09-05T05:18:10.551Z,5.50
2022-09-05T05:18:14.227Z,4.93
2022-09-05T05:20:42.454Z,7.22
2022-09-05T05:23:15.322Z,5.82
2022-09-05T05:25:55.043Z,8.80
2022-09-05T05:28:43.367Z,7.95
2022-09-05T05:31:16.873Z,6.68
2022-09-05T05:33:49.025Z,4.40
2022-09-05T05:36:38.968Z,4.50
2022-09-05T05:39:14.219Z,5.72
2022-09-05T05:41:49.817Z,6.97
2022-09-05T05:44:19.234Z,5.93
2022-09-05T05:46:53.925Z,4.95
2022-09-05T05:49:29.047Z,5.28
2022-09-05T05:52:14.105Z,6.00
2022-09-05T05:55:45.223Z,5.47
2022-09-05T05:58:00.390Z,10.18
2022-09-05T06:00:57.816Z,6.68
2022-09-05T06:03:46.124Z,6.32
2022-09-05T06:06:17.307Z,7.90
2022-09-05T06:11:30.692Z,9.38
2022-09-05T06:14:55.119Z,7.47
2022-09-05T06:15:26.649Z,7.63
2022-09-05T06:17:53.830Z,8.63
2022-09-05T06:22:10.652Z,8.10
2022-09-05T06:24:16.837Z,8.32
2022-09-05T06:27:12.959Z,7.78
2022-09-05T06:30:08.926Z,7.03
2022-09-05T06:33:09.773Z,9.60
2022-09-05T06:35:39.234Z,7.95
2022-09-05T06:38:14.184Z,11.27
2022-09-05T06:41:01.508Z,9.98
2022-09-05T06:44:01.751Z,6.88
2022-09-05T06:46:55.119Z,11.68
2022-09-05T06:49:51.623Z,6.93
2022-09-05T06:52:55.745Z,7.88
2022-09-05T06:55:40.270Z,10.07
2022-09-05T06:58:27.898Z,8.68
2022-09-05T07:01:02.407Z,10.30
2022-09-05T07:04:33.346Z,10.48
2022-09-05T07:07:23.093Z,12.05
2022-09-05T07:10:37.864Z,11.98
2022-09-05T07:13:28.027Z,9.90
2022-09-05T07:16:16.403Z,11.00
2022-09-05T07:19:12.264Z,9.38
2022-09-05T07:21:55.249Z,8.00
2022-09-05T07:24:41.802Z,9.70
2022-09-05T07:27:41.886Z,10.80
2022-09-05T07:30:22.917Z,16.45
2022-09-05T07:32:53.051Z,19.23
2022-09-05T07:35:29.315Z,25.83
2022-09-05T07:38:22.662Z,29.50
2022-09-05T07:41:18.382Z,35.50
2022-09-05T07:43:48.860Z,39.30
2022-09-05T07:46:26.383Z,41.88
2022-09-05T07:49:07.758Z,48.90
2022-09-05T07:55:10.986Z,44.45
2022-09-05T07:57:01.150Z,42.42
2022-09-05T07:57:31.674Z,56.22
2022-09-05T08:00:25.651Z,76.07
2022-09-05T08:02:55.095Z,73.35
2022-09-05T08:05:34.247Z,90.00
2022-09-05T08:08:08.339Z,94.82
2022-09-05T08:11:22.511Z,101.68
2022-09-05T08:13:46.455Z,95.15
2022-09-05T08:16:24.158Z,95.53
2022-09-05T08:18:53.138Z,122.93
2022-09-05T08:21:39.775Z,116.70
2022-09-05T08:24:13.780Z,144.77
2022-09-05T08:29:39.701Z,106.90
2022-09-05T08:32:10.651Z,99.35
2022-09-05T08:34:56.658Z,130.13
2022-09-05T08:37:26.109Z,134.48
2022-09-05T08:40:10.859Z,139.55
2022-09-05T08:44:24.437Z,187.55
2022-09-05T08:46:40.700Z,152.65
2022-09-05T08:49:11.321Z,260.92
2022-09-05T08:51:55.401Z,193.70
2022-09-05T08:54:32.068Z,172.60
2022-09-05T08:57:07.262Z,147.52
2022-09-05T08:59:36.655Z,183.07
2022-09-05T09:02:52.028Z,149.10
2022-09-05T09:06:12.253Z,143.63
2022-09-05T09:09:16.586Z,221.38
2022-09-05T09:12:03.330Z,172.95
2022-09-05T09:15:03.347Z,163.52
2022-09-05T09:17:44.550Z,216.07
2022-09-05T09:20:19.852Z,203.45
2022-09-05T09:22:58.694Z,204.18
2022-09-05T09:25:49.267Z,206.50
2022-09-05T09:28:47.986Z,199.68
2022-09-05T09:31:31.371Z,202.68
2022-09-05T09:34:06.977Z,261.25
2022-09-05T09:36:55.369Z,215.63
2022-09-05T09:39:39.301Z,199.38
2022-09-05T09:42:33.191Z,186.95
2022-09-05T09:45:27.874Z,194.88
2022-09-05T09:48:32.198Z,174.38
2022-09-05T09:51:05.124Z,209.50
2022-09-05T09:53:50.280Z,192.45
2022-09-05T09:56:48.002Z,186.25
2022-09-05T09:59:33.233Z,170.77
2022-09-05T10:04:31.282Z,172.25
2022-09-05T10:10:45.620Z,154.48
2022-09-05T10:10:46.170Z,190.30
2022-09-05T10:12:23.162Z,192.53
2022-09-05T10:15:30.516Z,216.68
2022-09-05T10:18:21.885Z,176.65
2022-09-05T10:21:15.659Z,181.45
2022-09-05T10:24:04.656Z,166.93
2022-09-05T10:26:37.086Z,174.30
2022-09-05T10:29:35.000Z,178.77
2022-09-05T10:35:07.966Z,171.60
2022-09-05T10:35:22.284Z,158.65
2022-09-05T10:38:10.743Z,169.20
2022-09-05T10:40:51.428Z,203.32
2022-09-05T10:43:30.116Z,147.98
2022-09-05T10:45:56.745Z,179.85
2022-09-05T10:48:52.915Z,179.82
2022-09-05T10:51:27.919Z,123.78
2022-09-05T10:53:58.699Z,107.65
2022-09-05T10:56:32.031Z,102.57
2022-09-05T10:59:38.737Z,87.10
2022-09-05T11:02:29.728Z,87.88
2022-09-05T11:04:50.579Z,84.43
2022-09-05T11:07:35.592Z,84.32
2022-09-05T11:10:10.176Z,76.63
2022-09-05T11:13:03.582Z,68.60
2022-09-05T11:15:33.969Z,69.80
2022-09-05T11:18:09.819Z,71.70
2022-09-05T11:20:54.647Z,71.30
2022-09-05T11:23:46.213Z,65.15
2022-09-05T11:26:54.526Z,78.72
2022-09-05T11:29:41.392Z,64.18
2022-09-05T11:35:46.709Z,57.17
2022-09-05T11:39:53.714Z,57.05
2022-09-05T11:39:59.041Z,57.53
2022-09-05T11:41:31.234Z,57.97
2022-09-05T11:44:26.131Z,56.42
2022-09-05T11:47:29.807Z,64.00
2022-09-05T11:50:27.448Z,57.58
2022-09-05T11:53:05.248Z,52.58
2022-09-05T11:55:58.633Z,42.42
2022-09-05T11:58:45.033Z,35.93
2022-09-05T12:01:41.544Z,35.28
2022-09-05T12:04:20.450Z,29.55
2022-09-05T12:07:27.065Z,28.65
2022-09-05T12:09:56.759Z,29.02
2022-09-05T12:12:43.447Z,25.20
2022-09-05T12:16:07.324Z,26.02
2022-09-05T12:19:18.763Z,26.17
2022-09-05T12:22:09.023Z,25.83
2022-09-05T12:26:14.118Z,27.58
2022-09-05T12:29:26.671Z,25.70
2022-09-05T12:32:50.618Z,26.05
2022-09-05T12:36:04.141Z,23.40
2022-09-05T12:40:43.240Z,24.15
2022-09-05T12:41:37.998Z,22.95
2022-09-05T12:44:06.050Z,22.13
2022-09-05T12:46:02.282Z,21.63
2022-09-05T12:48:39.253Z,21.88
2022-09-05T12:51:45.457Z,21.10
2022-09-05T12:54:24.556Z,22.17
2022-09-05T13:00:54.122Z,19.90
2022-09-05T13:03:01.183Z,20.80
2022-09-05T13:03:05.725Z,20.77
2022-09-05T13:05:46.491Z,23.43
2022-09-05T13:08:21.223Z,20.73
2022-09-05T13:14:47.446Z,24.73
2022-09-05T13:14:55.454Z,28.70
2022-09-05T13:16:43.913Z,20.27
2022-09-05T13:19:43.462Z,19.75
2022-09-05T13:22:14.706Z,21.33
2022-09-05T13:24:45.647Z,20.65
2022-09-05T13:27:16.114Z,20.30
2022-09-05T13:31:59.644Z,19.83
2022-09-05T13:37:59.938Z,20.23
2022-09-05T13:38:09.896Z,19.40
2022-09-05T13:39:02.078Z,20.63
2022-09-05T13:41:41.991Z,21.55
2022-09-05T13:44:27.488Z,20.65
2022-09-05T13:47:02.019Z,22.02
2022-09-05T13:49:44.801Z,22.83
2022-09-05T13:52:34.506Z,21.83
2022-09-05T13:55:25.163Z,24.08
2022-09-05T13:58:05.120Z,26.20
2022-09-05T14:00:40.499Z,26.50
2022-09-05T14:05:56.484Z,32.00
2022-09-05T14:11:55.835Z,39.90
2022-09-05T14:20:28.248Z,44.63
2022-09-05T14:23:24.293Z,45.72
2022-09-05T14:26:00.136Z,50.47
2022-09-05T14:28:46.622Z,44.30
2022-09-05T14:37:37.007Z,40.03
2022-09-05T14:37:42.860Z,31.60
2022-09-05T14:37:49.008Z,28.35
2022-09-05T14:40:35.302Z,29.02
2022-09-05T14:43:26.884Z,27.08
2022-09-05T14:46:07.318Z,26.17
2022-09-05T14:49:05.552Z,24.23
2022-09-05T14:51:46.518Z,24.85
2022-09-05T15:02:38.613Z,23.77
2022-09-05T15:02:49.129Z,23.17
2022-09-05T15:03:04.571Z,22.60
2022-09-05T15:05:32.014Z,21.48
2022-09-05T15:08:26.932Z,21.85
2022-09-05T15:12:15.727Z,22.60
2022-09-05T15:14:11.160Z,21.40
2022-09-05T15:16:43.589Z,21.30
2022-09-05T15:19:11.119Z,22.20
2022-09-05T15:21:41.334Z,22.15
2022-09-05T15:24:15.758Z,20.48
2022-09-05T15:26:53.544Z,22.63
2022-09-05T15:29:26.726Z,21.88
2022-09-05T15:32:11.886Z,21.73
2022-09-05T15:34:39.080Z,20.98
2022-09-05T15:37:40.392Z,22.02
2022-09-05T15:40:22.590Z,21.10
2022-09-05T15:42:53.435Z,21.23
2022-09-05T15:45:46.931Z,22.45
2022-09-05T15:48:26.278Z,20.92
2022-09-05T15:51:07.351Z,20.73
2022-09-05T15:53:37.648Z,22.08
2022-09-05T15:56:10.099Z,22.77
2022-09-05T15:58:53.490Z,20.70
2022-09-05T16:01:59.854Z,21.63
2022-09-05T16:10:31.286Z,21.35
2022-09-05T16:10:42.877Z,21.17
2022-09-05T16:10:45.440Z,21.23
2022-09-05T16:13:12.939Z,21.58
2022-09-05T16:20:27.806Z,22.40
2022-09-05T16:23:25.131Z,21.45
2022-09-05T16:23:29.518Z,21.83
2022-09-05T16:24:45.121Z,22.20
2022-09-05T16:27:17.989Z,23.35
2022-09-05T16:29:50.556Z,22.95
2022-09-05T16:32:28.624Z,21.85
2022-09-05T16:35:00.364Z,22.60
2022-09-05T16:37:35.771Z,25.10
2022-09-05T16:40:18.529Z,27.17
2022-09-05T16:42:49.441Z,23.33
2022-09-05T16:45:29.588Z,24.45
2022-09-05T16:48:34.370Z,26.70
2022-09-05T16:51:16.871Z,27.27
2022-09-05T16:54:10.380Z,37.47
2022-09-05T16:57:24.245Z,36.95
2022-09-05T16:59:51.301Z,39.95
2022-09-05T17:02:38.721Z,40.33
2022-09-05T17:05:39.279Z,35.85
2022-09-05T17:08:35.584Z,30.95
2022-09-05T17:11:12.273Z,28.27
2022-09-05T17:13:54.444Z,24.65
2022-09-05T17:16:56.424Z,24.05
2022-09-05T17:19:33.749Z,31.23
2022-09-05T17:23:39.148Z,42.25
2022-09-05T17:29:30.887Z,39.67
2022-09-05T17:29:31.063Z,45.58
2022-09-05T17:31:55.903Z,43.22
2022-09-05T17:34:30.025Z,44.60
2022-09-05T17:37:22.543Z,46.35
2022-09-05T17:40:10.126Z,44.40
2022-09-05T17:42:36.858Z,47.47
2022-09-05T17:45:26.454Z,41.25
2022-09-05T17:47:57.609Z,39.75
2022-09-05T17:50:28.205Z,32.75
2022-09-05T17:53:26.062Z,32.20
2022-09-05T17:56:09.399Z,35.80
2022-09-05T17:58:48.991Z,52.35
2022-09-05T18:01:26.890Z,74.13
2022-09-05T18:04:18.011Z,95.35
2022-09-05T18:06:49.015Z,153.93
2022-09-05T18:09:42.870Z,141.65
2022-09-05T18:13:31.596Z,166.60
2022-09-05T18:15:35.631Z,197.73
2022-09-05T18:18:43.658Z,225.30
2022-09-05T18:24:12.822Z,285.85
2022-09-05T18:26:48.847Z,329.75
2022-09-05T18:29:58.850Z,443.52
2022-09-05T18:33:55.297Z,546.22
2022-09-05T18:36:02.255Z,627.22
2022-09-05T18:38:50.244Z,685.78
2022-09-05T18:41:24.749Z,662.63
2022-09-05T18:43:54.679Z,694.45
2022-09-05T18:46:49.800Z,661.50
2022-09-05T18:50:23.817Z,612.08
2022-09-05T18:52:24.236Z,617.17
2022-09-05T18:56:11.664Z,623.38
2022-09-05T18:57:48.651Z,634.55
2022-09-05T19:00:24.783Z,634.60
2022-09-05T19:03:07.709Z,656.53
2022-09-05T19:06:35.589Z,655.28
2022-09-05T19:08:56.765Z,693.67
2022-09-05T19:11:53.347Z,711.63
2022-09-05T19:14:36.395Z,700.85
2022-09-05T19:17:30.137Z,714.83
2022-09-05T19:20:32.486Z,704.63
2022-09-05T19:23:10.969Z,690.00
2022-09-05T19:25:41.331Z,668.90
2022-09-05T19:35:14.092Z,689.90
2022-09-05T19:36:53.410Z,643.90
2022-09-05T19:37:09.791Z,618.88
2022-09-05T19:37:42.878Z,606.47
2022-09-05T19:47:25.412Z,603.15
2022-09-05T19:47:43.623Z,572.78
2022-09-05T19:47:43.634Z,551.70
2022-09-05T19:49:07.463Z,582.15
2022-09-05T19:51:34.503Z,592.65
2022-09-05T19:54:04.610Z,623.58
2022-09-05T19:56:44.370Z,587.85
2022-09-05T19:59:25.207Z,573.03
2022-09-05T20:01:53.106Z,565.08
2022-09-05T20:04:21.077Z,574.20
2022-09-05T20:06:49.654Z,537.72
2022-09-05T20:09:19.018Z,545.80
2022-09-05T20:11:50.791Z,537.15
2022-09-05T20:14:18.673Z,527.08
2022-09-05T20:16:48.135Z,467.83
2022-09-05T20:19:34.404Z,445.30
2022-09-05T20:22:17.409Z,470.38
2022-09-05T20:24:52.536Z,489.95
2022-09-05T20:27:19.432Z,459.83
2022-09-05T20:29:58.050Z,419.60
2022-09-05T20:32:39.441Z,444.58
2022-09-05T20:37:24.065Z,438.65
2022-09-05T20:43:20.297Z,432.05
2022-09-05T20:43:31.288Z,408.42
2022-09-05T20:43:53.116Z,395.20
2022-09-05T20:50:26.083Z,392.50
2022-09-05T20:54:08.675Z,361.35
2022-09-05T20:54:27.128Z,356.98
2022-09-05T20:55:40.196Z,341.48
2022-09-05T20:58:11.490Z,325.17
2022-09-05T21:01:15.708Z,324.85
2022-09-05T21:03:36.604Z,301.48
2022-09-05T21:06:23.030Z,310.15
2022-09-05T21:08:55.823Z,318.52
2022-09-05T21:11:32.597Z,294.75
2022-09-05T21:14:03.419Z,289.13
2022-09-05T21:16:44.884Z,263.63
2022-09-05T21:19:29.447Z,255.98
2022-09-05T21:24:33.441Z,224.70
2022-09-05T21:27:21.827Z,230.15
2022-09-05T21:29:53.025Z,221.27
2022-09-05T21:32:27.975Z,216.73
2022-09-05T21:35:09.250Z,217.60
2022-09-05T21:37:53.587Z,203.90
2022-09-05T21:40:21.301Z,193.70
2022-09-05T21:46:31.672Z,178.77
2022-09-05T21:47:44.916Z,164.20
2022-09-05T21:48:24.133Z,150.75
2022-09-05T21:50:57.262Z,137.93
2022-09-05T21:57:16.884Z,126.57
2022-09-05T21:59:21.755Z,113.10
2022-09-05T22:02:08.387Z,87.60
2022-09-05T22:04:35.622Z,81.30
2022-09-05T22:07:08.090Z,83.70
2022-09-05T22:09:34.611Z,77.38
2022-09-05T22:12:09.692Z,72.57
2022-09-05T22:14:47.784Z,69.55
2022-09-05T22:17:14.443Z,69.55
2022-09-05T22:19:41.254Z,70.15
2022-09-05T22:22:16.941Z,59.83
2022-09-05T22:24:55.383Z,62.15
2022-09-05T22:27:25.936Z,63.15
2022-09-05T22:29:52.905Z,56.28
2022-09-05T22:32:34.769Z,62.63
2022-09-05T22:35:27.283Z,52.00
2022-09-05T22:38:00.257Z,54.15
2022-09-05T22:40:29.045Z,55.60
2022-09-05T22:43:00.845Z,59.42
2022-09-05T22:45:28.798Z,58.30
2022-09-05T22:47:55.506Z,63.03
2022-09-05T22:50:23.015Z,52.67
2022-09-05T22:52:50.119Z,51.30
2022-09-05T22:55:17.438Z,54.45
2022-09-05T22:57:44.015Z,57.13
2022-09-05T23:00:11.207Z,52.88
2022-09-05T23:02:37.763Z,52.65
2022-09-05T23:05:05.618Z,48.58
2022-09-05T23:07:32.503Z,56.38
2022-09-05T23:09:59.476Z,51.15
2022-09-05T23:12:26.153Z,54.13
2022-09-05T23:14:52.811Z,52.72
2022-09-05T23:17:19.320Z,51.03
2022-09-05T23:19:45.850Z,50.35
2022-09-05T23:22:12.392Z,52.13
2022-09-05T23:24:38.911Z,50.90
2022-09-05T23:27:05.475Z,49.63
2022-09-05T23:29:32.005Z,51.13
2022-09-05T23:31:58.528Z,48.88
2022-09-05T23:34:25.632Z,52.03
2022-09-05T23:36:52.182Z,50.70
2022-09-05T23:39:18.734Z,50.97
2022-09-05T23:41:45.271Z,50.10
2022-09-05T23:44:12.031Z,50.65
2022-09-05T23:46:40.421Z,47.72
2022-09-05T23:49:07.166Z,51.22
2022-09-05T23:51:33.784Z,50.67
2022-09-05T23:54:00.338Z,50.17
2022-09-05T23:56:26.882Z,48.47
2022-09-05T23:58:53.431Z,53.45
